Time;durP1;ratioP1;P1;durP2;ratioP2;P2;SDS_P1;SDS_P2;PMS_P1;PMS_P2;Temp;Humidity;BMP_temperature;BMP_pressure;BME280_temperature;BME280_humidity;BME280_pressure;Samples;Min_cycle;Max_cycle;Signal;HPM_P1;HPM_P2
2022/06/14 00:01:24;;;;;;;18.42;5.03;;;;;;;12.56;78.91;100294.16;5088163;28;20012;-70
2022/06/14 00:03:50;;;;;;;20.55;4.32;;;;;;;12.56;79.36;100291.56;5106765;28;20077;-70
2022/06/14 00:06:19;;;;;;;21.85;4.57;;;;;;;12.55;79.01;100283.78;5106843;28;20020;-70
2022/06/14 00:08:45;;;;;;;24.95;4.47;;;;;;;12.57;78.98;100298.47;5106980;28;20498;-70
2022/06/14 00:11:46;;;;;;;15.80;3.20;;;;;;;12.57;79.12;100289.84;5106629;28;20024;-70
2022/06/14 00:14:12;;;;;;;17.02;3.78;;;;;;;12.57;78.82;100295.03;5098080;28;20062;-71
2022/06/14 00:16:38;;;;;;;9.68;3.95;;;;;;;12.58;78.65;100291.53;5106613;28;20028;-70
2022/06/14 00:19:04;;;;;;;22.70;3.95;;;;;;;12.57;78.53;100303.69;5106383;28;20024;-71
2022/06/14 00:21:31;;;;;;;18.08;4.63;;;;;;;12.56;78.47;100309.78;5106235;28;20027;-70
2022/06/14 00:23:56;;;;;;;15.38;4.03;;;;;;;12.50;78.42;100302.09;5087925;28;20438;-70
2022/06/14 00:26:22;;;;;;;20.20;4.40;;;;;;;12.53;78.60;100307.25;5106552;28;20020;-71
2022/06/14 00:28:48;;;;;;;20.48;3.72;;;;;;;12.47;78.77;100305.63;5105354;28;20016;-71
2022/06/14 00:31:15;;;;;;;15.75;3.88;;;;;;;12.49;78.69;100300.38;5105644;28;20087;-70
2022/06/14 00:33:41;;;;;;;10.85;3.65;;;;;;;12.49;78.80;100305.59;5106251;28;20024;-70
2022/06/14 00:36:17;;;;;;;17.10;3.58;;;;;;;12.47;78.69;100303.03;5106309;28;20016;-71
2022/06/14 00:38:43;;;;;;;20.55;3.65;;;;;;;12.46;78.47;100311.69;5106251;28;20123;-71
2022/06/14 00:41:18;;;;;;;19.77;3.78;;;;;;;12.49;78.40;100305.59;5105780;28;20209;-71
2022/06/14 00:43:43;;;;;;;19.20;4.65;;;;;;;12.41;78.52;100297.06;5106261;28;20028;-70
2022/06/14 00:46:26;;;;;;;15.23;3.72;;;;;;;12.42;78.60;100324.81;5105667;28;20046;-71
2022/06/14 00:49:06;;;;;;;20.42;3.42;;;;;;;12.37;78.41;100311.88;5105873;28;20053;-71
2022/06/14 00:51:36;;;;;;;12.98;3.53;;;;;;;12.35;78.68;100313.63;5105819;28;20102;-71
2022/06/14 00:54:21;;;;;;;19.98;4.57;;;;;;;12.26;78.69;100318.13;5106143;28;20027;-71
2022/06/14 00:56:56;;;;;;;17.60;3.80;;;;;;;12.26;78.69;100325.06;5105786;28;20024;-70
2022/06/14 00:59:34;;;;;;;13.05;4.03;;;;;;;12.29;78.68;100314.59;5105917;28;20031;-71
2022/06/14 01:02:12;;;;;;;24.80;3.67;;;;;;;12.24;78.87;100316.41;5105507;28;20476;-71
2022/06/14 01:04:38;;;;;;;17.42;4.53;;;;;;;12.29;78.74;100314.59;5105604;28;20042;-70
2022/06/14 01:07:10;;;;;;;23.55;4.22;;;;;;;12.26;78.84;100322.47;5105674;28;20490;-70
2022/06/14 01:09:55;;;;;;;13.82;4.45;;;;;;;12.24;79.06;100326.81;5105740;28;20028;-71
2022/06/14 01:12:26;;;;;;;15.50;4.15;;;;;;;12.19;78.92;100315.66;5105312;28;20111;-71
2022/06/14 01:14:55;;;;;;;20.58;3.95;;;;;;;12.25;78.81;100321.59;5105255;28;20020;-70
2022/06/14 01:17:21;;;;;;;14.50;3.63;;;;;;;12.23;79.02;100325.13;5086799;28;20128;-71
2022/06/14 01:19:46;;;;;;;19.63;3.85;;;;;;;12.26;78.91;100312.94;5105075;28;20405;-72
2022/06/14 01:22:12;;;;;;;17.40;3.80;;;;;;;12.25;79.08;100316.38;5105130;28;20020;-71
2022/06/14 01:24:40;;;;;;;20.40;4.10;;;;;;;12.24;79.08;100308.59;5105389;28;20498;-72
2022/06/14 01:27:08;;;;;;;21.98;4.60;;;;;;;12.20;79.25;100310.44;5105182;28;20027;-71
2022/06/14 01:29:36;;;;;;;14.98;4.22;;;;;;;12.20;79.08;100323.44;5105375;28;20031;-71
2022/06/14 01:32:06;;;;;;;23.75;4.82;;;;;;;12.19;79.33;100320.88;5086615;28;20051;-71
2022/06/14 01:34:35;;;;;;;20.27;3.80;;;;;;;12.19;79.26;100318.25;5105290;28;20008;-71
2022/06/14 01:37:01;;;;;;;21.40;4.57;;;;;;;12.16;79.08;100321.75;5105167;28;20017;-71
2022/06/14 01:39:27;;;;;;;19.23;4.30;;;;;;;12.16;79.14;100323.53;5104922;28;20023;-71
2022/06/14 01:42:11;;;;;;;22.02;3.88;;;;;;;12.10;79.27;100324.47;5104601;28;20405;-71
2022/06/14 01:44:53;;;;;;;18.52;4.63;;;;;;;12.09;79.32;100318.38;5105170;28;20028;-71
2022/06/14 01:47:34;;;;;;;15.15;4.25;;;;;;;12.11;79.38;100324.44;5104872;28;20027;-71
2022/06/14 01:53:37;;;;;;;22.20;3.78;;;;;;;12.14;79.31;100329.59;5104685;28;20038;-71
2022/06/14 01:56:08;;;;;;;15.00;4.57;;;;;;;12.14;79.30;100332.19;5104749;28;20027;-71
2022/06/14 01:59:03;;;;;;;25.20;4.13;;;;;;;12.13;79.47;100330.47;5104557;28;20044;-72
2022/06/14 02:01:32;;;;;;;10.25;3.80;;;;;;;12.13;79.69;100325.28;5104406;28;20348;-70
2022/06/14 02:07:01;;;;;;;24.05;4.50;;;;;;;12.16;79.62;100329.56;5104392;28;20106;-72
2022/06/14 02:09:33;;;;;;;12.55;3.90;;;;;;;12.21;79.52;100321.69;5104507;28;20504;-72
2022/06/14 02:12:03;;;;;;;20.77;4.03;;;;;;;12.25;79.54;100320.75;5104507;28;20042;-71
2022/06/14 02:14:48;;;;;;;18.85;4.20;;;;;;;12.27;79.52;100316.38;5104506;28;20054;-71
2022/06/14 02:17:29;;;;;;;13.43;4.28;;;;;;;12.30;79.48;100326.72;5104211;28;20034;-71
2022/06/14 02:19:59;;;;;;;15.45;4.10;;;;;;;12.32;79.79;100335.38;5104449;28;20103;-71
2022/06/14 02:22:35;;;;;;;15.15;4.05;;;;;;;12.34;79.88;100324.94;5104232;28;20028;-71
2022/06/14 02:25:24;;;;;;;15.70;4.43;;;;;;;12.34;79.98;100328.41;5104352;28;20024;-71
2022/06/14 02:27:59;;;;;;;24.20;4.93;;;;;;;12.36;79.68;100326.63;5104369;28;20028;-71
2022/06/14 02:30:31;;;;;;;18.60;4.47;;;;;;;12.38;79.86;100322.25;5103858;28;20396;-71
2022/06/14 02:33:05;;;;;;;14.82;3.80;;;;;;;12.43;79.86;100321.34;5103844;28;20028;-71
2022/06/14 02:35:40;;;;;;;15.50;4.57;;;;;;;12.46;79.85;100322.13;5104355;28;20019;-71
2022/06/14 02:38:33;;;;;;;25.63;4.75;;;;;;;12.48;79.71;100322.97;5104332;28;20023;-71
2022/06/14 02:41:07;;;;;;;;;;;;;;;12.55;79.22;100328.91;5095646;28;20042;-71
2022/06/14 02:43:40;;;;;;;20.70;4.57;;;;;;;12.50;79.63;100328.13;5103983;28;19918;-71
2022/06/14 02:46:11;;;;;;;19.13;4.70;;;;;;;12.54;79.82;100337.59;5103718;28;20034;-71
2022/06/14 02:49:00;;;;;;;22.50;5.00;;;;;;;12.59;79.81;100337.50;5104125;28;20020;-71
2022/06/14 02:51:42;;;;;;;19.85;4.93;;;;;;;12.64;79.82;100335.69;5103536;28;20083;-71
2022/06/14 02:54:18;;;;;;;20.88;6.00;;;;;;;12.64;79.61;100346.97;5103763;28;20020;-70
2022/06/14 02:56:52;;;;;;;18.67;4.57;;;;;;;12.73;79.70;100353.75;5103744;28;20032;-70
2022/06/14 02:59:33;;;;;;;15.43;4.57;;;;;;;12.82;79.49;100354.47;5103861;28;20020;-71
2022/06/14 03:02:01;;;;;;;20.20;4.35;;;;;;;12.83;79.71;100353.59;5103440;28;20024;-70
2022/06/14 03:05:02;;;;;;;29.02;5.35;;;;;;;12.99;79.31;100347.19;5103860;28;20111;-71
2022/06/14 03:07:41;;;;;;;20.63;4.43;;;;;;;13.06;79.21;100347.94;5103864;28;20016;-70
2022/06/14 03:10:07;;;;;;;17.52;4.43;;;;;;;13.10;79.28;100349.59;5103688;28;20464;-72
2022/06/14 03:12:59;;;;;;;18.45;4.45;;;;;;;13.19;79.00;100353.78;5103577;28;20032;-70
2022/06/14 03:15:41;;;;;;;16.85;4.03;;;;;;;13.33;78.88;100355.22;5103496;28;20030;-70
2022/06/14 03:18:26;;;;;;;16.77;5.43;;;;;;;13.41;78.84;100355.06;5103736;28;20059;-70
2022/06/14 03:21:10;;;;;;;20.08;5.35;;;;;;;13.51;78.22;100359.25;5103606;28;20020;-70
2022/06/14 03:24:13;;;;;;;15.27;4.63;;;;;;;13.56;78.34;100366.97;5103516;28;20047;-70
2022/06/14 03:27:02;;;;;;;14.57;3.72;;;;;;;13.69;77.84;100367.56;5103133;28;20043;-70
2022/06/14 03:29:56;;;;;;;10.93;3.88;;;;;;;13.77;77.41;100359.56;5102375;28;20049;-70
2022/06/14 03:32:38;;;;;;;19.95;4.75;;;;;;;13.78;76.90;100362.13;5103097;28;20030;-71
2022/06/14 03:35:13;;;;;;;16.33;5.18;;;;;;;13.92;76.92;100368.78;5103862;28;20035;-71
2022/06/14 03:37:39;;;;;;;21.65;4.35;;;;;;;13.95;76.68;100359.13;5103596;28;20063;-71
2022/06/14 03:40:12;;;;;;;19.80;5.22;;;;;;;13.99;76.31;100362.53;5103393;28;20024;-70
2022/06/14 03:42:37;;;;;;;16.15;4.30;;;;;;;14.07;76.28;100362.34;5103536;28;20068;-70
2022/06/14 03:45:05;;;;;;;16.30;3.60;;;;;;;14.16;76.14;100356.91;5103077;28;20575;-69
2022/06/14 03:47:31;;;;;;;10.80;3.90;;;;;;;14.35;75.56;100365.16;5103332;28;20468;-69
2022/06/14 03:50:01;;;;;;;9.45;3.63;;;;;;;14.46;75.60;100366.63;5102753;28;20028;-69
2022/06/14 03:52:41;;;;;;;15.00;4.40;;;;;;;14.76;74.70;100371.94;5103159;28;20393;-69
2022/06/14 03:55:54;;;;;;;10.32;3.05;;;;;;;15.23;74.13;100374.19;5103163;28;20407;-69
2022/06/14 03:58:38;;;;;;;16.75;3.17;;;;;;;15.73;74.16;100379.75;5095605;28;20094;-69
2022/06/14 04:01:11;;;;;;;16.13;3.83;;;;;;;16.10;71.20;100377.78;5103251;28;20114;-69
2022/06/14 04:03:49;;;;;;;11.32;3.65;;;;;;;16.54;71.86;100379.81;5103235;28;20066;-69
2022/06/14 04:06:36;;;;;;;18.23;4.30;;;;;;;17.18;69.90;100372.38;5106867;28;20024;-70
2022/06/14 04:09:07;;;;;;;10.40;2.97;;;;;;;17.40;67.44;100368.09;5107025;28;20054;-69
2022/06/14 04:11:44;;;;;;;17.37;3.80;;;;;;;17.65;66.32;100378.50;5106688;28;20024;-70
2022/06/14 04:14:27;;;;;;;17.50;4.63;;;;;;;17.76;65.07;100372.00;5107022;28;20274;-70
2022/06/14 04:16:57;;;;;;;14.05;3.20;;;;;;;17.74;64.17;100381.69;5106575;28;20023;-70
2022/06/14 04:19:45;;;;;;;12.68;3.53;;;;;;;17.52;63.46;100380.78;5106588;28;20019;-69
2022/06/14 04:22:42;;;;;;;16.83;4.15;;;;;;;17.01;63.64;100375.59;5105912;28;20091;-69
2022/06/14 04:25:13;;;;;;;10.48;3.60;;;;;;;16.69;63.77;100391.53;5106390;28;20032;-70
2022/06/14 04:28:02;;;;;;;10.00;3.83;;;;;;;16.35;63.86;100393.53;5106564;28;20028;-70
2022/06/14 04:30:36;;;;;;;13.23;3.30;;;;;;;15.93;64.46;100391.34;5105983;28;20028;-70
2022/06/14 04:33:19;;;;;;;19.73;3.67;;;;;;;15.60;64.49;100395.81;5105455;28;20092;-70
2022/06/14 04:35:56;;;;;;;12.18;4.15;;;;;;;15.23;66.07;100387.28;5106415;28;20016;-69
2022/06/14 04:38:28;;;;;;;11.20;3.53;;;;;;;15.11;66.58;100391.06;5106377;28;20020;-70
2022/06/14 04:41:02;;;;;;;11.38;3.88;;;;;;;15.03;66.50;100393.03;5106086;28;20554;-70
2022/06/14 04:43:54;;;;;;;12.80;3.67;;;;;;;14.90;67.05;100394.28;5106134;28;20087;-71
2022/06/14 04:46:31;;;;;;;12.93;3.30;;;;;;;14.94;67.63;100394.16;5105975;28;20016;-70
2022/06/14 04:49:31;;;;;;;17.08;4.22;;;;;;;15.06;67.50;100402.56;5105987;28;20393;-70
2022/06/14 04:52:06;;;;;;;12.45;3.38;;;;;;;15.12;67.71;100402.41;5105954;28;20020;-70
2022/06/14 04:54:50;;;;;;;9.75;2.85;;;;;;;15.20;66.97;100400.44;5106154;28;20106;-71
2022/06/14 04:57:32;;;;;;;10.38;3.53;;;;;;;15.18;67.51;100388.28;5084053;28;20055;-70
2022/06/14 05:00:05;;;;;;;14.63;3.35;;;;;;;15.32;67.56;100391.38;5085420;28;20107;-72
2022/06/14 05:02:43;;;;;;;13.73;3.55;;;;;;;15.47;67.85;100381.38;5085723;28;20025;-71
2022/06/14 05:05:27;;;;;;;10.48;3.20;;;;;;;15.80;67.44;100401.34;5085662;28;20017;-70
2022/06/14 05:08:08;;;;;;;12.45;3.25;;;;;;;16.05;66.47;100400.63;5085340;28;20024;-72
2022/06/14 05:10:46;;;;;;;14.82;3.75;;;;;;;16.22;66.95;100386.97;5085447;28;20512;-72
2022/06/14 05:13:55;;;;;;;8.73;2.85;;;;;;;16.92;66.71;100396.88;5084932;28;20028;-70
2022/06/14 05:16:29;;;;;;;10.23;2.92;;;;;;;17.61;65.36;100390.06;5021877;28;20097;-71
2022/06/14 05:19:19;;;;;;;8.20;2.72;;;;;;;18.69;64.15;100393.69;5022553;28;20041;-70
2022/06/14 05:22:13;;;;;;;8.88;2.90;;;;;;;19.63;61.88;100395.69;5022892;28;20530;-70
2022/06/14 05:24:39;;;;;;;6.63;1.95;;;;;;;20.66;57.16;100408.38;5022506;28;20133;-70
2022/06/14 05:27:23;;;;;;;9.45;2.38;;;;;;;21.58;56.01;100402.75;5022658;28;20208;-70
2022/06/14 05:30:19;;;;;;;8.00;1.85;;;;;;;22.46;52.55;100404.88;5022825;28;20055;-70
2022/06/14 05:33:17;;;;;;;10.15;2.58;;;;;;;22.99;50.97;100400.91;5022399;28;20510;-69
2022/06/14 05:35:54;;;;;;;5.65;2.13;;;;;;;23.42;48.80;100407.19;5022456;28;20038;-69
2022/06/14 05:38:51;;;;;;;7.53;2.08;;;;;;;24.31;47.85;100417.47;5022278;28;20076;-70
2022/06/14 05:41:43;;;;;;;9.18;2.38;;;;;;;24.78;45.81;100417.84;5021659;28;20037;-70
2022/06/14 05:44:11;;;;;;;9.13;2.35;;;;;;;24.98;43.66;100419.16;5022430;28;20040;-71
2022/06/14 05:46:46;;;;;;;5.32;1.70;;;;;;;25.16;42.39;100416.16;5022176;28;20080;-69
2022/06/14 05:49:29;;;;;;;8.18;2.00;;;;;;;24.97;42.73;100408.63;5026770;28;20104;-70
2022/06/14 05:52:10;;;;;;;8.65;1.90;;;;;;;25.19;41.65;100418.59;5084636;28;20032;-70
2022/06/14 05:54:52;;;;;;;7.90;1.95;;;;;;;25.27;41.75;100422.53;5084817;28;20314;-70
2022/06/14 05:57:23;;;;;;;5.82;1.80;;;;;;;25.64;41.36;100409.28;5090377;28;20040;-70
2022/06/14 06:00:10;;;;;;;4.53;2.00;;;;;;;26.20;40.21;100420.34;5105032;28;20024;-73
2022/06/14 06:02:42;;;;;;;6.32;2.10;;;;;;;26.51;39.46;100422.50;5104871;28;20244;-72
2022/06/14 06:05:24;;;;;;;6.47;1.90;;;;;;;26.71;38.16;100423.69;5104651;28;20024;-72
2022/06/14 06:08:00;;;;;;;8.73;2.00;;;;;;;26.69;38.61;100422.94;5104588;28;20020;-70
2022/06/14 06:10:40;;;;;;;5.28;1.90;;;;;;;26.99;38.12;100426.84;5104635;28;20027;-71
2022/06/14 06:13:14;;;;;;;9.95;2.20;;;;;;;27.18;37.69;100430.75;5104626;28;20039;-71
2022/06/14 06:15:51;;;;;;;6.95;1.90;;;;;;;27.49;36.79;100423.00;5104389;28;20020;-71
2022/06/14 06:18:25;;;;;;;7.60;2.25;;;;;;;27.50;36.31;100423.81;5104517;28;20024;-71
2022/06/14 06:21:02;;;;;;;9.57;2.20;;;;;;;27.76;35.35;100435.09;5104712;28;20028;-71
2022/06/14 06:23:52;;;;;;;7.03;1.90;;;;;;;27.59;35.66;100433.75;5104549;28;20024;-70
2022/06/14 06:26:21;;;;;;;5.70;1.77;;;;;;;27.66;35.70;100442.97;5104174;28;20035;-70
2022/06/14 06:28:57;;;;;;;10.30;1.98;;;;;;;27.86;35.04;100439.66;5104097;28;20031;-70
2022/06/14 06:31:31;;;;;;;12.25;2.60;;;;;;;27.43;34.40;100440.31;5104127;28;20387;-70
2022/06/14 06:34:01;;;;;;;8.55;2.30;;;;;;;26.94;34.74;100437.88;5104254;28;20031;-70
2022/06/14 06:36:38;;;;;;;7.28;1.88;;;;;;;26.30;35.88;100447.09;5104296;28;20115;-70
2022/06/14 06:39:39;;;;;;;8.48;2.28;;;;;;;25.92;35.97;100441.00;5104103;28;20035;-69
2022/06/14 06:42:19;;;;;;;7.53;1.80;;;;;;;25.73;36.88;100440.53;5104185;28;20093;-70
2022/06/14 06:44:54;;;;;;;9.90;2.22;;;;;;;25.61;37.28;100446.69;5104189;28;20032;-71
2022/06/14 06:47:22;;;;;;;6.47;1.92;;;;;;;25.69;36.97;100449.69;5104292;28;20081;-71
2022/06/14 06:49:59;;;;;;;10.43;2.10;;;;;;;25.90;36.59;100448.22;5104255;28;20032;-69
2022/06/14 06:52:34;;;;;;;5.38;2.00;;;;;;;25.72;36.92;100451.28;5104004;28;20473;-69
2022/06/14 06:55:04;;;;;;;6.18;1.73;;;;;;;25.43;37.27;100446.22;5104113;28;20012;-69
2022/06/14 06:57:35;;;;;;;9.30;1.98;;;;;;;25.56;37.21;100443.53;5103783;28;20097;-69
2022/06/14 07:00:04;;;;;;;7.97;2.10;;;;;;;25.66;37.24;100449.91;5103790;28;20063;-69
2022/06/14 07:02:38;;;;;;;7.65;2.10;;;;;;;25.98;37.29;100454.69;5103900;28;20028;-70
2022/06/14 07:05:05;;;;;;;7.45;1.95;;;;;;;26.04;36.26;100447.25;5103828;28;20165;-70
2022/06/14 07:07:53;;;;;;;5.65;1.80;;;;;;;26.33;36.06;100460.19;5103844;28;20016;-70
2022/06/14 07:10:21;;;;;;;6.45;1.73;;;;;;;26.33;36.05;100458.41;5103942;28;20106;-71
2022/06/14 07:13:03;;;;;;;4.82;1.55;;;;;;;26.26;35.45;100465.13;5103791;28;20031;-68
2022/06/14 07:15:42;;;;;;;7.50;2.45;;;;;;;26.28;36.30;100470.31;5103519;28;20039;-70
2022/06/14 07:19:00;;;;;;;5.10;1.90;;;;;;;26.59;35.77;100457.41;5103972;28;20028;-70
2022/06/14 07:21:33;;;;;;;5.57;2.00;;;;;;;26.80;35.13;100470.88;5018801;28;20052;-70
2022/06/14 07:24:10;;;;;;;4.72;1.58;;;;;;;26.50;34.35;100474.06;5020912;28;20038;-71
2022/06/14 07:26:46;;;;;;;6.22;2.05;;;;;;;25.89;35.74;100475.78;5020775;28;20030;-71
2022/06/14 07:29:27;;;;;;;6.60;1.95;;;;;;;25.78;35.98;100479.22;5020315;28;20026;-70
2022/06/14 07:32:02;;;;;;;6.35;1.58;;;;;;;25.59;35.91;100483.19;5020584;28;20045;-69
2022/06/14 07:34:28;;;;;;;5.03;1.80;;;;;;;25.49;36.25;100478.53;5020851;28;20165;-69
2022/06/14 07:37:32;;;;;;;5.07;1.70;;;;;;;25.60;36.72;100482.22;5020880;28;20026;-70
2022/06/14 07:40:20;;;;;;;5.55;1.65;;;;;;;25.65;36.74;100481.91;5018361;28;20085;-71
2022/06/14 07:43:23;;;;;;;7.97;1.90;;;;;;;25.17;36.66;100478.09;5024692;28;20022;-70
2022/06/14 07:45:49;;;;;;;8.85;2.30;;;;;;;25.24;37.21;100490.03;5024324;28;20106;-69
2022/06/14 07:48:36;;;;;;;4.78;1.60;;;;;;;25.41;36.61;100498.59;5024524;28;20033;-69
2022/06/14 07:51:27;;;;;;;4.68;2.00;;;;;;;25.51;36.03;100499.69;5024428;28;20044;-69
2022/06/14 07:54:09;;;;;;;6.30;1.75;;;;;;;25.93;36.26;100494.06;5016633;28;20041;-69
2022/06/14 07:56:41;;;;;;;9.82;2.40;;;;;;;26.07;35.30;100498.38;5024528;28;20057;-70
2022/06/14 07:59:30;;;;;;;4.90;1.30;;;;;;;26.30;34.90;100493.19;5088282;28;20400;-68
2022/06/14 08:02:05;;;;;;;5.38;1.50;;;;;;;26.40;33.61;100496.06;5106779;28;20027;-71
2022/06/14 08:04:41;;;;;;;5.55;1.50;;;;;;;26.33;34.73;100494.78;5106149;28;20024;-71
2022/06/14 08:07:12;;;;;;;5.32;2.10;;;;;;;26.52;34.13;100501.44;5105924;28;20020;-69
2022/06/14 08:10:04;;;;;;;7.32;1.67;;;;;;;26.51;33.87;100499.72;5106835;28;20043;-70
2022/06/14 08:12:47;;;;;;;4.90;1.25;;;;;;;26.48;34.37;100514.09;5106865;28;20123;-69
2022/06/14 08:15:14;;;;;;;3.05;1.45;;;;;;;26.54;34.04;100513.63;5106492;28;20483;-69
2022/06/14 08:17:48;;;;;;;4.90;1.48;;;;;;;26.36;34.05;100503.41;5106653;28;20480;-69
2022/06/14 08:20:24;;;;;;;6.50;1.75;;;;;;;26.24;34.25;100506.94;5106695;28;20024;-68
2022/06/14 08:22:54;;;;;;;6.18;1.73;;;;;;;26.34;34.45;100513.31;5106587;28;20103;-68
2022/06/14 08:25:29;;;;;;;6.95;2.28;;;;;;;26.68;34.12;100517.94;5106603;28;20024;-68
2022/06/14 08:28:07;;;;;;;5.85;1.58;;;;;;;27.17;33.92;100512.53;5106725;28;20020;-69
2022/06/14 08:30:43;;;;;;;5.80;2.03;;;;;;;27.46;32.79;100520.03;5106358;28;20020;-68
2022/06/14 08:33:13;;;;;;;3.55;1.52;;;;;;;27.51;33.04;100524.16;5088029;28;20020;-70
2022/06/14 08:35:43;;;;;;;2.60;1.30;;;;;;;27.85;32.32;100513.50;5106207;28;20020;-70
2022/06/14 08:38:29;;;;;;;5.53;1.47;;;;;;;27.97;31.41;100517.00;5106495;28;20020;-70
2022/06/14 08:41:01;;;;;;;3.35;1.40;;;;;;;27.83;31.53;100534.09;5106350;28;20040;-70
2022/06/14 08:43:39;;;;;;;6.03;1.50;;;;;;;27.73;31.52;100530.50;5106156;28;20020;-70
2022/06/14 08:46:34;;;;;;;7.25;2.25;;;;;;;27.87;32.09;100530.25;5105901;28;20067;-70
2022/06/14 08:49:37;;;;;;;5.95;1.77;;;;;;;27.85;31.25;100529.50;5106120;28;20020;-70
2022/06/14 08:52:12;;;;;;;3.95;1.40;;;;;;;27.66;30.72;100527.44;5074845;28;20099;-69
2022/06/14 08:55:15;;;;;;;3.60;1.63;;;;;;;27.48;31.19;100533.25;5106125;28;20381;-69
2022/06/14 08:57:43;;;;;;;4.30;1.48;;;;;;;27.51;30.99;100535.66;5105658;28;20052;-69
2022/06/14 09:00:25;;;;;;;3.60;1.65;;;;;;;27.44;30.39;100530.00;5105695;28;20582;-69
2022/06/14 09:03:16;;;;;;;4.18;1.23;;;;;;;27.15;31.49;100530.44;5105758;28;20391;-69
2022/06/14 09:05:57;;;;;;;3.15;1.30;;;;;;;27.25;31.27;100529.72;5074072;28;20097;-70
2022/06/14 09:08:46;;;;;;;5.10;1.40;;;;;;;27.63;30.51;100539.19;5105775;28;20031;-69
2022/06/14 09:11:44;;;;;;;5.47;1.67;;;;;;;27.65;30.18;100547.94;5105627;28;20024;-70
2022/06/14 09:14:43;;;;;;;4.10;1.40;;;;;;;27.39;30.70;100542.81;5105497;28;20024;-70
2022/06/14 09:17:37;;;;;;;4.25;1.08;;;;;;;27.47;30.07;100551.06;5087145;28;20027;-70
2022/06/14 09:20:10;;;;;;;4.55;1.77;;;;;;;27.14;30.35;100543.88;5106154;28;20032;-71
2022/06/14 09:22:49;;;;;;;3.65;1.42;;;;;;;27.14;30.89;100549.22;5105550;28;20024;-70
2022/06/14 09:25:32;;;;;;;3.42;1.30;;;;;;;27.30;30.55;100555.03;5105366;28;20035;-71
2022/06/14 09:28:22;;;;;;;5.45;1.30;;;;;;;27.46;30.49;100552.03;5105261;28;20028;-71
2022/06/14 09:31:07;;;;;;;1.75;1.20;;;;;;;27.69;30.19;100557.41;5105047;28;20020;-70
2022/06/14 09:34:16;;;;;;;3.17;1.27;;;;;;;27.70;31.29;100552.94;5105013;28;20032;-71
2022/06/14 09:36:54;;;;;;;2.70;1.60;;;;;;;27.80;29.56;100555.69;5105093;28;20046;-72
2022/06/14 09:39:41;;;;;;;4.65;1.17;;;;;;;27.39;29.93;100561.47;5105071;28;20075;-71
2022/06/14 09:42:18;;;;;;;6.13;1.42;;;;;;;27.34;30.54;100558.31;5105075;28;20316;-70
2022/06/14 09:44:59;;;;;;;4.72;1.52;;;;;;;27.57;30.57;100561.00;5105043;28;20028;-73
2022/06/14 09:47:41;;;;;;;6.80;1.73;;;;;;;27.75;30.05;100565.91;5104959;28;20071;-71
2022/06/14 09:50:40;;;;;;;4.28;1.30;;;;;;;27.67;30.53;100564.66;5104842;28;20053;-71
2022/06/14 09:53:26;;;;;;;4.50;1.40;;;;;;;27.78;30.90;100566.47;5104784;28;20522;-71
2022/06/14 09:56:12;;;;;;;3.85;1.27;;;;;;;28.17;30.42;100570.56;5104740;28;20051;-71
2022/06/14 09:59:01;;;;;;;2.65;1.38;;;;;;;28.25;29.49;100569.94;5104599;28;20126;-71
2022/06/14 10:01:41;;;;;;;3.50;1.20;;;;;;;28.20;30.32;100564.97;5089635;28;20063;-71
2022/06/14 10:04:36;;;;;;;3.65;1.25;;;;;;;28.28;29.83;100562.53;5104237;28;20020;-72
2022/06/14 10:07:25;;;;;;;5.95;1.58;;;;;;;28.24;30.06;100570.91;5104246;28;20030;-72
2022/06/14 10:10:00;;;;;;;3.80;1.30;;;;;;;28.04;29.02;100570.69;5104697;28;20493;-71
2022/06/14 10:13:14;;;;;;;5.90;2.03;;;;;;;27.77;28.88;100571.94;5104492;28;20475;-71
2022/06/14 10:15:51;;;;;;;2.85;1.55;;;;;;;27.74;29.76;100564.19;5021572;28;20037;-71
2022/06/14 10:18:41;;;;;;;3.22;1.42;;;;;;;27.58;29.29;100570.69;5021736;28;20030;-71
2022/06/14 10:21:13;;;;;;;3.03;1.30;;;;;;;27.32;30.27;100571.75;5021760;28;20030;-71
2022/06/14 10:23:53;;;;;;;5.10;1.40;;;;;;;27.23;30.21;100569.81;5021706;28;20025;-72
2022/06/14 10:29:20;;;;;;;4.15;1.45;;;;;;;27.03;30.50;100579.34;5021513;28;20081;-72
2022/06/14 10:32:07;;;;;;;2.90;1.50;;;;;;;26.67;31.38;100588.13;5019910;28;20112;-72
2022/06/14 10:34:49;;;;;;;6.57;1.67;;;;;;;26.44;32.40;100576.53;5021139;28;20032;-72
2022/06/14 10:37:29;;;;;;;1.70;1.00;;;;;;;26.33;33.18;100579.94;5021466;28;20025;-72
2022/06/14 10:40:53;;;;;;;4.45;1.48;;;;;;;26.21;32.92;100582.53;5021194;28;20041;-71
2022/06/14 10:43:24;;;;;;;6.30;1.55;;;;;;;26.09;32.60;100588.72;5021043;28;20067;-71
2022/06/14 10:46:01;;;;;;;4.10;1.40;;;;;;;26.07;33.31;100585.31;5004302;28;20034;-72
2022/06/14 10:48:55;;;;;;;6.53;1.85;;;;;;;26.04;33.13;100593.53;5021252;28;20658;-71
2022/06/14 10:51:36;;;;;;;6.93;1.70;;;;;;;26.20;33.03;100580.81;5039941;28;20044;-70
2022/06/14 10:54:34;;;;;;;2.97;1.55;;;;;;;26.39;32.67;100579.50;5081104;28;20109;-71
2022/06/14 10:57:20;;;;;;;5.63;1.60;;;;;;;26.38;32.91;100583.13;5070050;28;20048;-70
2022/06/14 10:59:45;;;;;;;5.45;1.58;;;;;;;25.94;32.84;100590.66;5080854;28;20036;-71
2022/06/14 11:02:13;;;;;;;4.78;1.83;;;;;;;25.18;33.48;100586.91;5080530;28;20029;-70
2022/06/14 11:04:43;;;;;;;2.50;1.25;;;;;;;24.20;35.09;100585.25;5080689;28;20075;-71
2022/06/14 11:07:25;;;;;;;2.03;1.25;;;;;;;23.61;35.89;100589.72;5080758;28;20039;-70
2022/06/14 11:10:15;;;;;;;1.92;1.20;;;;;;;22.87;36.67;100588.66;5080723;28;20036;-71
2022/06/14 11:13:02;;;;;;;3.13;1.30;;;;;;;22.36;37.29;100584.41;5081551;28;20040;-70
2022/06/14 11:15:34;;;;;;;4.60;1.70;;;;;;;21.84;38.52;100596.03;5087009;28;20024;-70
2022/06/14 11:17:59;;;;;;;2.65;1.77;;;;;;;21.45;39.29;100596.22;5108754;28;20032;-71
2022/06/14 11:20:56;;;;;;;3.90;1.50;;;;;;;21.17;40.03;100600.25;5110288;28;20035;-71
2022/06/14 11:23:29;;;;;;;7.35;1.80;;;;;;;20.91;40.51;100586.53;5110110;28;20023;-70
2022/06/14 11:25:58;;;;;;;6.47;1.48;;;;;;;20.69;41.14;100592.84;5110079;28;20367;-71
2022/06/14 11:28:45;;;;;;;2.28;1.65;;;;;;;20.39;42.13;100602.16;5109078;28;20111;-70
2022/06/14 11:31:30;;;;;;;6.20;1.95;;;;;;;20.03;42.73;100602.94;5090846;28;20043;-70
2022/06/14 11:34:34;;;;;;;4.38;1.90;;;;;;;19.67;43.37;100607.94;5109778;28;20027;-70
2022/06/14 11:36:59;;;;;;;7.75;1.90;;;;;;;19.44;44.38;100608.94;5110133;28;20024;-70
2022/06/14 11:40:19;;;;;;;4.63;1.77;;;;;;;19.21;45.04;100610.75;5110156;28;20016;-70
2022/06/14 11:43:03;;;;;;;6.70;2.30;;;;;;;19.11;45.76;100609.41;5027018;28;20101;-69
2022/06/14 11:45:53;;;;;;;5.40;2.00;;;;;;;19.07;45.92;100604.25;5026753;28;20029;-70
2022/06/14 11:48:43;;;;;;;3.92;2.03;;;;;;;18.98;46.62;100607.25;5027140;28;20049;-71
2022/06/14 11:51:31;;;;;;;6.88;1.65;;;;;;;18.93;46.75;100603.97;5027041;28;20021;-71
2022/06/14 11:54:05;;;;;;;5.75;2.05;;;;;;;18.90;47.08;100607.56;5026538;28;20097;-70
2022/06/14 11:56:38;;;;;;;3.85;1.67;;;;;;;18.83;47.91;100606.97;5027011;28;20018;-72
2022/06/14 11:59:30;;;;;;;3.90;1.90;;;;;;;18.73;47.67;100597.72;5027229;28;20046;-71
2022/06/14 12:02:49;;;;;;;8.00;2.10;;;;;;;18.56;47.63;100601.03;5026526;28;20089;-71
2022/06/14 12:05:36;;;;;;;7.43;1.98;;;;;;;18.54;47.84;100601.09;5026645;28;20149;-70
2022/06/14 12:08:06;;;;;;;8.00;1.73;;;;;;;18.54;47.46;100608.97;5026786;28;20049;-71
2022/06/14 12:11:10;;;;;;;3.33;1.70;;;;;;;18.46;47.51;100611.03;5026937;28;20030;-70
2022/06/14 12:13:47;;;;;;;5.10;2.15;;;;;;;18.38;47.81;100605.22;5064819;28;20060;-71
2022/06/14 12:16:20;;;;;;;5.45;1.80;;;;;;;18.30;47.21;100611.63;5086643;28;20358;-70
2022/06/14 12:18:56;;;;;;;2.95;1.83;;;;;;;18.24;47.27;100613.63;5086809;28;20314;-70
2022/06/14 12:21:32;;;;;;;5.80;2.15;;;;;;;18.18;47.73;100604.19;5086473;28;20028;-70
2022/06/14 12:24:05;;;;;;;5.78;2.22;;;;;;;18.21;47.72;100615.44;5085583;28;20028;-70
2022/06/14 12:26:42;;;;;;;9.18;1.77;;;;;;;18.24;47.15;100601.34;5082541;28;20436;-70
2022/06/14 12:29:25;;;;;;;4.30;1.75;;;;;;;18.14;48.08;100613.09;5083290;28;20395;-70